Time;durP1;ratioP1;P1;durP2;ratioP2;P2;SDS_P1;SDS_P2;PMS_P1;PMS_P2;Temp;Humidity;BMP_temperature;BMP_pressure;BME280_temperature;BME280_humidity;BME280_pressure;Samples;Min_cycle;Max_cycle;Signal;HPM_P1;HPM_P2
2022/08/16 00:05:44;;;;;;;2.20;1.00;;;20.90;99.90;;;;;;20740769;28;20104;-82
2022/08/16 00:15:47;;;;;;;2.60;1.40;;;20.80;99.90;;;;;;20750692;28;20042;-82
2022/08/16 00:25:48;;;;;;;3.03;1.67;;;20.60;99.90;;;;;;20744861;28;20045;-82
2022/08/16 00:35:49;;;;;;;4.65;1.85;;;20.60;99.90;;;;;;20725713;28;20042;-82
2022/08/16 00:45:57;;;;;;;13.45;4.43;;;20.40;99.90;;;;;;20739488;28;20041;-83
2022/08/16 00:56:04;;;;;;;4.57;2.00;;;20.20;99.90;;;;;;20729146;28;20049;-82
2022/08/16 01:06:06;;;;;;;4.53;2.27;;;20.00;99.90;;;;;;20745921;28;20332;-82
2022/08/16 01:16:12;;;;;;;5.05;1.92;;;19.90;99.90;;;;;;20730872;28;20033;-82
2022/08/16 01:26:14;;;;;;;5.50;2.90;;;19.80;99.90;;;;;;20741942;28;20045;-82
2022/08/16 01:36:15;;;;;;;3.28;2.17;;;19.90;99.90;;;;;;20739948;28;20049;-82
2022/08/16 01:46:30;;;;;;;6.90;3.38;;;20.00;99.90;;;;;;20718355;28;20378;-82
2022/08/16 01:56:32;;;;;;;5.72;2.67;;;20.00;99.90;;;;;;20740385;28;20044;-83
2022/08/16 02:06:33;;;;;;;6.78;2.78;;;19.80;99.90;;;;;;20763153;28;20325;-82
2022/08/16 02:16:35;;;;;;;5.22;3.00;;;19.70;99.90;;;;;;20732949;28;20713;-82
2022/08/16 02:26:36;;;;;;;6.57;3.45;;;19.60;99.90;;;;;;20720516;28;20468;-82
2022/08/16 02:36:37;;;;;;;4.45;2.63;;;19.50;99.90;;;;;;20738689;28;20067;-82
2022/08/16 02:46:38;;;;;;;6.07;3.40;;;19.50;99.90;;;;;;20742908;28;20460;-82
2022/08/16 02:56:41;;;;;;;7.63;3.55;;;19.50;99.90;;;;;;20749865;28;20038;-82
2022/08/16 03:06:42;;;;;;;5.55;2.85;;;19.40;99.90;;;;;;20756927;28;20038;-82
2022/08/16 03:16:43;;;;;;;5.80;3.03;;;19.40;99.90;;;;;;20770840;28;20091;-82
2022/08/16 03:26:44;;;;;;;5.63;2.90;;;19.30;99.90;;;;;;20770360;28;20034;-82
2022/08/16 03:36:45;;;;;;;5.15;3.20;;;19.30;99.90;;;;;;20752125;28;20038;-82
2022/08/16 03:46:46;;;;;;;9.80;4.43;;;19.30;99.90;;;;;;20738079;28;20050;-82
2022/08/16 03:56:47;;;;;;;8.40;4.40;;;19.20;99.90;;;;;;20738631;28;20042;-82
2022/08/16 04:06:48;;;;;;;11.70;4.90;;;19.40;99.90;;;;;;20738807;28;21655;-82
2022/08/16 04:16:49;;;;;;;7.18;3.22;;;19.40;99.90;;;;;;20749148;28;20908;-82
2022/08/16 04:26:50;;;;;;;6.07;2.92;;;19.30;99.90;;;;;;20765059;28;20068;-82
2022/08/16 04:36:51;;;;;;;7.03;3.60;;;19.30;99.90;;;;;;20720087;28;1287908;-82
2022/08/16 04:46:52;;;;;;;7.53;3.95;;;19.20;99.90;;;;;;20766752;28;20441;-82
2022/08/16 04:56:53;;;;;;;8.75;4.60;;;19.10;99.90;;;;;;20756999;28;20119;-82
2022/08/16 05:06:54;;;;;;;8.20;4.57;;;19.20;99.90;;;;;;20715498;28;20033;-83
2022/08/16 05:16:55;;;;;;;9.85;5.85;;;19.20;99.90;;;;;;20715315;28;20034;-82
2022/08/16 05:26:56;;;;;;;9.02;4.38;;;19.10;99.90;;;;;;20721576;28;20048;-82
2022/08/16 05:36:58;;;;;;;9.73;4.85;;;19.20;99.90;;;;;;20718369;28;20060;-83
2022/08/16 05:47:00;;;;;;;7.68;5.10;;;19.20;99.90;;;;;;20741847;28;20040;-82
2022/08/16 05:57:01;;;;;;;9.10;5.10;;;19.50;99.90;;;;;;20757125;28;20511;-82
2022/08/16 06:07:05;;;;;;;12.57;4.47;;;20.20;99.90;;;;;;20744958;28;20474;-82
2022/08/16 06:17:06;;;;;;;10.98;4.68;;;20.20;99.90;;;;;;20726359;28;20666;-82
2022/08/16 06:27:07;;;;;;;12.00;5.47;;;20.40;99.90;;;;;;20738624;28;20099;-83
2022/08/16 06:37:08;;;;;;;10.73;5.55;;;20.50;99.90;;;;;;20747454;28;20041;-83
2022/08/16 06:47:11;;;;;;;8.60;5.40;;;20.30;99.90;;;;;;20726636;28;20045;-83
2022/08/16 06:57:12;;;;;;;10.00;5.47;;;20.40;99.90;;;;;;20750192;28;20038;-83
2022/08/16 07:07:13;;;;;;;12.45;6.28;;;20.60;99.90;;;;;;20713148;28;20037;-83
2022/08/16 07:17:17;;;;;;;11.25;6.20;;;20.60;99.90;;;;;;20715661;28;22231;-83
2022/08/16 07:27:18;;;;;;;11.38;5.53;;;20.60;99.90;;;;;;20722770;28;20374;-83
2022/08/16 07:37:19;;;;;;;12.90;6.22;;;20.80;99.90;;;;;;20720150;28;20429;-83
2022/08/16 07:47:20;;;;;;;12.57;6.28;;;21.10;99.90;;;;;;20737489;28;20497;-83
2022/08/16 07:57:22;;;;;;;11.57;7.88;;;21.30;99.90;;;;;;20748683;28;20029;-83
2022/08/16 08:07:23;;;;;;;11.57;7.00;;;21.60;99.90;;;;;;20746453;28;20119;-83
2022/08/16 08:17:24;;;;;;;13.30;6.93;;;21.70;99.90;;;;;;20749558;28;20033;-83
2022/08/16 08:27:26;;;;;;;18.50;7.03;;;21.90;99.90;;;;;;20733266;28;20045;-83
2022/08/16 08:37:27;;;;;;;11.88;5.75;;;22.20;99.90;;;;;;20735574;28;20109;-83
2022/08/16 08:47:28;;;;;;;12.70;6.20;;;22.70;99.90;;;;;;20727061;28;20091;-84
2022/08/16 08:57:29;;;;;;;21.58;7.07;;;23.10;99.90;;;;;;20742852;28;20041;-82
2022/08/16 09:07:30;;;;;;;13.88;6.00;;;23.30;99.90;;;;;;20732829;28;20040;-82
2022/08/16 09:17:31;;;;;;;11.20;5.70;;;23.50;99.90;;;;;;20729602;28;20076;-82
2022/08/16 09:27:35;;;;;;;10.32;4.68;;;24.00;99.90;;;;;;20741497;28;20029;-82
2022/08/16 09:37:36;;;;;;;12.20;7.00;;;24.40;99.90;;;;;;20743018;28;20596;-82
2022/08/16 09:47:38;;;;;;;9.25;5.13;;;24.80;99.90;;;;;;20746390;28;20279;-82
2022/08/16 09:57:40;;;;;;;8.25;4.60;;;24.90;99.90;;;;;;20721856;28;20233;-82
2022/08/16 10:07:42;;;;;;;9.93;5.82;;;25.20;99.90;;;;;;20717419;28;20033;-81
2022/08/16 10:17:45;;;;;;;8.00;4.53;;;25.20;99.90;;;;;;20777222;28;20305;-82
2022/08/16 10:27:47;;;;;;;9.73;5.07;;;25.70;99.90;;;;;;20725155;28;20041;-82
2022/08/16 10:37:49;;;;;;;10.80;5.82;;;25.90;99.90;;;;;;20749216;28;20115;-82
2022/08/16 10:47:50;;;;;;;11.00;5.95;;;26.90;99.90;;;;;;20719455;28;20411;-82
2022/08/16 10:57:55;;;;;;;6.72;4.35;;;27.10;99.90;;;;;;20739139;28;20031;-83
2022/08/16 11:07:56;;;;;;;9.32;4.20;;;27.10;99.90;;;;;;20708816;28;20037;-83
2022/08/16 11:17:57;;;;;;;13.38;6.43;;;27.20;99.90;;;;;;20730802;28;20065;-82
2022/08/16 11:27:59;;;;;;;9.30;4.70;;;26.60;99.90;;;;;;20740768;28;20088;-82
2022/08/16 11:38:04;;;;;;;6.10;3.53;;;26.60;99.90;;;;;;20714500;28;20596;-82
2022/08/16 11:48:06;;;;;;;6.43;3.58;;;27.30;99.90;;;;;;20723176;28;20034;-83
2022/08/16 11:58:08;;;;;;;5.68;3.88;;;27.90;99.90;;;;;;20721639;28;20597;-82
2022/08/16 12:08:10;;;;;;;4.35;2.40;;;28.40;99.90;;;;;;20735023;28;20706;-83
2022/08/16 12:18:12;;;;;;;8.13;4.47;;;28.50;99.90;;;;;;20741743;28;21475;-83
2022/08/16 12:28:13;;;;;;;5.20;3.40;;;29.00;99.90;;;;;;20721791;28;20123;-83
2022/08/16 12:38:14;;;;;;;5.13;2.70;;;28.10;99.90;;;;;;20741330;28;20100;-82
2022/08/16 12:58:39;;;;;;;5.90;3.50;;;27.00;99.90;;;;;;20729253;28;20148;-83
2022/08/16 13:08:41;;;;;;;5.85;3.45;;;26.70;99.90;;;;;;20733281;28;20037;-83
2022/08/16 13:18:42;;;;;;;7.45;3.90;;;26.70;99.90;;;;;;20736621;28;20409;-83
2022/08/16 13:28:43;;;;;;;10.30;5.82;;;27.60;99.90;;;;;;20727206;28;20038;-83
2022/08/16 13:38:44;;;;;;;8.52;3.83;;;28.00;99.90;;;;;;20736982;28;20046;-83
2022/08/16 13:48:45;;;;;;;6.43;3.42;;;28.20;99.90;;;;;;20708086;28;20029;-82
2022/08/16 13:58:46;;;;;;;5.78;3.28;;;27.80;99.90;;;;;;20730852;28;20038;-82
2022/08/16 14:08:48;;;;;;;4.32;2.38;;;28.20;99.90;;;;;;20712400;28;20501;-82
2022/08/16 14:18:49;;;;;;;6.22;3.45;;;28.70;99.90;;;;;;20726654;28;20041;-82
2022/08/16 14:28:51;;;;;;;7.18;3.05;;;28.20;99.90;;;;;;20741456;28;20107;-82
2022/08/16 14:38:52;;;;;;;5.38;2.83;;;27.50;99.90;;;;;;20733673;28;20281;-82
2022/08/16 14:48:53;;;;;;;4.75;2.58;;;27.00;99.90;;;;;;20744485;28;20535;-83
2022/08/16 14:58:54;;;;;;;6.40;3.22;;;26.90;99.90;;;;;;20736963;28;20037;-83
2022/08/16 15:08:55;;;;;;;4.68;2.53;;;26.90;99.90;;;;;;20743191;28;20052;-82
2022/08/16 15:18:57;;;;;;;6.28;3.25;;;26.60;99.90;;;;;;20754500;28;20033;-83
2022/08/16 15:28:59;;;;;;;2.95;1.83;;;26.50;99.90;;;;;;20746122;28;20095;-82
2022/08/16 15:39:02;;;;;;;5.13;2.95;;;26.50;99.90;;;;;;20733430;28;20053;-82
2022/08/16 15:49:03;;;;;;;13.52;4.07;;;26.50;99.90;;;;;;20726333;28;20045;-82
2022/08/16 15:59:04;;;;;;;5.63;3.60;;;26.40;99.90;;;;;;20699554;28;20130;-82
2022/08/16 16:09:06;;;;;;;12.05;4.15;;;26.60;99.90;;;;;;20720921;28;20851;-83
2022/08/16 16:19:07;;;;;;;5.55;3.00;;;26.70;99.90;;;;;;20751744;28;20087;-85
2022/08/16 16:29:09;;;;;;;4.28;1.77;;;26.70;99.90;;;;;;20723733;28;20152;-81
2022/08/16 16:39:10;;;;;;;5.15;2.50;;;26.40;99.90;;;;;;20744959;28;20271;-82
2022/08/16 16:49:12;;;;;;;3.92;1.98;;;26.10;99.90;;;;;;20739302;28;20041;-82
2022/08/16 16:59:13;;;;;;;3.28;2.00;;;25.80;99.90;;;;;;20729257;28;20491;-82
2022/08/16 17:09:15;;;;;;;4.70;2.55;;;25.50;99.90;;;;;;20713105;28;20060;-83
2022/08/16 17:19:16;;;;;;;4.72;2.67;;;25.30;99.90;;;;;;20712787;28;20149;-83
2022/08/16 17:29:17;;;;;;;5.32;3.05;;;25.00;99.90;;;;;;20707831;28;20690;-81
2022/08/16 17:39:19;;;;;;;3.33;1.73;;;24.80;99.90;;;;;;20715123;28;20045;-81
2022/08/16 17:49:20;;;;;;;5.20;2.92;;;24.70;99.90;;;;;;20729454;28;20061;-83
2022/08/16 17:59:22;;;;;;;3.70;2.10;;;24.50;99.90;;;;;;20709259;28;20118;-80
2022/08/16 18:09:24;;;;;;;3.95;2.08;;;24.30;99.90;;;;;;20726265;28;20191;-80
2022/08/16 18:19:25;;;;;;;10.75;2.83;;;24.00;99.90;;;;;;20708750;28;20474;-80
2022/08/16 18:29:26;;;;;;;3.28;1.52;;;23.90;99.90;;;;;;20727907;28;20505;-80
2022/08/16 18:39:27;;;;;;;3.78;1.88;;;23.70;99.90;;;;;;20711651;28;20060;-80
2022/08/16 18:49:28;;;;;;;4.03;2.42;;;23.50;99.90;;;;;;20732864;28;20115;-80
2022/08/16 18:59:29;;;;;;;5.50;2.30;;;23.40;99.90;;;;;;20711503;28;20042;-80
2022/08/16 19:09:30;;;;;;;6.72;3.30;;;23.40;99.90;;;;;;20700378;28;20073;-80
2022/08/16 19:19:31;;;;;;;3.95;2.03;;;23.20;99.90;;;;;;20719843;28;20038;-80
2022/08/16 19:29:33;;;;;;;6.22;2.67;;;23.00;99.90;;;;;;20700239;28;20072;-80
2022/08/16 19:39:35;;;;;;;4.97;2.13;;;22.80;99.90;;;;;;20743633;28;20674;-80
2022/08/16 19:49:36;;;;;;;3.88;2.17;;;22.60;99.90;;;;;;20742561;28;20037;-80
2022/08/16 19:59:38;;;;;;;3.38;2.03;;;22.40;99.90;;;;;;20748488;28;20030;-80
2022/08/16 20:09:39;;;;;;;4.57;2.28;;;22.20;99.90;;;;;;20764013;28;20041;-80
2022/08/16 20:19:41;;;;;;;4.22;2.45;;;22.00;99.90;;;;;;20760692;28;20038;-80
2022/08/16 20:29:44;;;;;;;6.65;2.88;;;21.80;99.90;;;;;;20747903;28;21043;-80
2022/08/16 20:39:47;;;;;;;5.78;2.53;;;21.70;99.90;;;;;;20752825;28;20042;-80
2022/08/16 20:49:49;;;;;;;4.18;2.33;;;21.50;99.90;;;;;;20762066;28;20548;-80
2022/08/16 20:59:50;;;;;;;3.25;1.75;;;21.40;99.90;;;;;;20743164;28;20041;-80
2022/08/16 21:09:51;;;;;;;3.25;1.80;;;21.50;99.90;;;;;;20764191;28;20046;-80
2022/08/16 21:19:52;;;;;;;5.38;2.60;;;21.40;99.90;;;;;;20737994;28;20053;-80
2022/08/16 21:29:53;;;;;;;4.55;2.60;;;21.40;99.90;;;;;;20745946;28;20049;-80
2022/08/16 21:39:54;;;;;;;5.22;3.00;;;21.20;99.90;;;;;;20738486;28;20045;-80
2022/08/16 21:49:55;;;;;;;4.60;2.80;;;21.10;99.90;;;;;;20719616;28;20045;-79
2022/08/16 21:59:56;;;;;;;4.78;3.05;;;21.00;99.90;;;;;;20735663;28;20041;-79
2022/08/16 22:09:57;;;;;;;6.18;2.78;;;20.90;99.90;;;;;;20719977;28;20115;-79
2022/08/16 22:19:58;;;;;;;6.05;3.22;;;21.00;99.90;;;;;;20723464;28;20421;-79
2022/08/16 22:30:00;;;;;;;5.55;3.55;;;21.00;99.90;;;;;;20733081;28;20064;-79
2022/08/16 22:40:01;;;;;;;7.50;3.25;;;21.00;99.90;;;;;;20718353;28;21402;-79
2022/08/16 22:50:02;;;;;;;8.93;4.07;;;21.00;99.90;;;;;;20731441;28;20045;-79
2022/08/16 23:00:07;;;;;;;9.43;4.68;;;20.90;99.90;;;;;;20710713;28;20474;-79
2022/08/16 23:10:08;;;;;;;7.40;3.80;;;20.80;99.90;;;;;;20717026;28;20077;-79
2022/08/16 23:20:10;;;;;;;6.63;3.83;;;20.80;99.90;;;;;;20744328;28;20165;-79
2022/08/16 23:30:11;;;;;;;7.03;5.05;;;20.80;99.90;;;;;;20729664;28;20044;-79
2022/08/16 23:40:13;;;;;;;6.88;4.50;;;20.80;99.90;;;;;;20738226;28;20135;-79
2022/08/16 23:50:15;;;;;;;7.15;3.67;;;20.70;99.90;;;;;;20730044;28;20049;-79
